Details From EGKK - London Gatwick
To KRSW - Southwest Florida Intl
Flight Number -
Tags Generated
Created
Modified
Stats Distance 3,875 nm / 7,176 km
Max Altitude 0 ft / 0 m
Waypoints 5
Social Downloads 3
Likes 0
Share VATSIM

Download

Looking for another format? Having issues loading an existing format? Contact us
Advertisement - Login to hide

Notes

Generated

Route

EGKK EVRIN CANIT R0807 KRSW

ID Type Via Altitude Latitude Longitude Leg Dist Tot Dist Heading (true) Name
O EGKK APT - 0 ft / 0 m 51.14691˚ -0.21257˚ - 0 nm - -
EVRIN FIX - 0 ft / 0 m 51.78222˚ -6.56333˚ 240 nm 240 nm 282° / 277° -
CANIT FIX - 0 ft / 0 m 29.56250˚ -78.42586˚ 3380 nm 3620 nm 276° / 225° -
R0807 FIX - 0 ft / 0 m 26.52649˚ -81.77002˚ 254 nm 3874 nm 225° / 223° -
O KRSW APT - 0 ft / 0 m 26.52649˚ -81.77002˚ 0 nm 3874 nm 0° / 180° -

Altitude Profile

Advertisement - Login to hide

Weather


0- 5 10 15 20 25 30 35+ Temperature / ° C

Clouds and Precipitation
Forecast for 2017-12-15 18:00 UTC. Updated an hour ago

Ground ~20,000 ft ~40,000 ft Winds

EGKK

Details ICAO EGKK (LGW)
Name London Gatwick
Region United Kingdom
Timezone Europe/London (UTC+0.0)
Stats Elevation 196 ft / 60 m (AMSL)
Location 51.148753° -0.192472°
Runways 2
Magnetic Variation 0.432° W

METAR

EGKK 151420Z 33017KT 9999 BKN027 05/02 Q1000

Decode

TAF

TAF EGKK 151052Z 1512/1618 32010KT 9999 SCT025 PROB30 TEMPO 1512/1518 35015G25KT 8000 -SHRA BKN014 PROB30 1518/1601 BKN014 BECMG 1606/1609 24006KT

Decode

Departure Runways

ID Width Length Bearing (true) Bearing (mag) Surface Threshold Offset Overrun Length
08L 148 ft / 45 m 8,377 ft / 2,553 m 77.69° 78.12° Asphalt 1,053 ft / 321 m 0 ft / 0 m
08R 148 ft / 45 m 10,341 ft / 3,152 m 77.59° 78.02° Asphalt 1,289 ft / 393 m 0 ft / 0 m
26L 148 ft / 45 m 10,341 ft / 3,152 m 257.63° 258.06° Asphalt 879 ft / 268 m 600 ft / 183 m
26R 148 ft / 45 m 8,377 ft / 2,553 m 257.71° 258.14° Asphalt 1,365 ft / 416 m 0 ft / 0 m

KRSW

Details ICAO KRSW (RSW)
Name Southwest Florida Intl
Region United States
Timezone America/New_York (UTC-5.0)
Stats Elevation 30 ft / 9 m (AMSL)
Location 26.536162° -81.755152°
Runways 1
Magnetic Variation 5.840° W

METAR

KRSW 151353Z 18004KT 10SM FEW044 17/14 A3011 RMK AO2 SLP194 T01720144

Decode

TAF

KRSW 151133Z 1512/1612 17006KT P6SM SCT025 BKN060 FM151500 24008KT P6SM SCT040 SCT250 FM152200 30005KT P6SM FEW025 SCT250 FM160600 00000KT 6SM BR SCT250

Decode

Destination Runways

ID Width Length Bearing (true) Bearing (mag) Surface Threshold Offset Overrun Length
06 150 ft / 46 m 12,004 ft / 3,659 m 53.96° 59.80° Asphalt 0 ft / 0 m 0 ft / 0 m
24 150 ft / 46 m 12,004 ft / 3,659 m 233.97° 239.81° Asphalt 0 ft / 0 m 0 ft / 0 m

Approach Navaids

Runway Type Ident Frequency Range Bearing (true) Bearing (mag) Slope Elevation
06 Localiser IRSW 111.50 MHz 18 nm / 33 km 53.97° 59.81° - 28 ft / 9 m (AMSL)
06 Glidescope IRSW 111.50 MHz 10 nm / 19 km 53.96° 59.80° 3.00° 27 ft / 8 m (AMSL)